CST,Max TemperatureF,Mean TemperatureF,Min TemperatureF,Max Dew PointF,MeanDew PointF,Min DewpointF,Max Humidity, Mean Humidity, Min Humidity, Max Sea Level PressureIn, Mean Sea Level PressureIn, Min Sea Level PressureIn, Max VisibilityMiles, Mean VisibilityMiles, Min VisibilityMiles, Max Wind SpeedMPH, Mean Wind SpeedMPH, Max Gust SpeedMPH,PrecipitationIn, CloudCover, Events, WindDirDegrees
2013-11-1,51,42,33,39,37,30,93,82,62,29.93,29.68,29.48,10,9,5,22,10,28,0.01,5,Rain,298
2013-11-2,53,40,28,37,33,27,100,78,47,30.07,30.02,29.93,10,10,5,13,7,,0.00,0,,280
2013-11-3,59,47,35,34,31,27,87,57,31,30.01,29.81,29.69,10,10,10,32,13,40,0.00,1,,145
2013-11-4,48,39,28,37,32,25,93,71,46,30.13,29.88,29.69,10,10,10,24,11,32,0.00,1,Rain,245
2013-11-5,37,32,26,28,25,18,93,72,45,30.26,30.16,30.09,10,10,10,8,3,,0.00,3,,332
2013-11-6,46,32,19,27,23,18,100,70,37,30.16,30.11,30.09,10,10,7,16,6,20,0.00,2,,266
2013-11-7,50,36,21,28,23,18,100,75,34,30.27,30.19,30.14,10,10,7,20,6,26,0.00,1,,275
2013-11-8,44,34,23,39,29,21,100,77,49,30.14,29.79,29.57,10,10,10,23,9,31,0.00,3,Rain-Snow,159
2013-11-9,44,40,35,39,30,25,93,67,46,30.29,30.00,29.68,10,10,10,31,18,43,0.01,7,,300
2013-11-10,37,29,21,30,26,19,93,78,65,30.33,30.23,30.10,10,10,7,23,8,34,0.00,5,Snow,220
2013-11-11,26,17,8,18,8,3,85,66,54,30.78,30.55,30.24,10,10,7,25,20,34,0.00,3,Snow,342
2013-11-12,37,22,6,16,7,1,92,62,22,30.79,30.63,30.33,10,10,10,13,6,17,0.00,0,,207
2013-11-13,60,42,24,34,26,14,86,62,31,30.32,29.99,29.85,10,10,10,15,8,20,0.00,0,,209
2013-11-14,53,42,30,36,33,28,93,75,47,29.85,29.81,29.78,10,10,10,21,6,25,0.00,0,,254
2013-11-15,60,40,21,37,31,19,100,73,39,29.80,29.68,29.48,10,9,0,17,5,23,0.00,1,Fog,170
2013-11-16,46,42,37,45,40,34,93,89,70,29.48,29.32,29.22,10,5,0,15,8,20,0.00,5,Fog-Rain,156
2013-11-17,42,37,32,41,33,25,100,83,70,29.93,29.58,29.32,10,9,2,26,14,36,0.00,8,,312
2013-11-18,37,29,21,25,21,18,86,71,52,30.19,30.12,29.94,10,10,7,23,12,28,0.00,2,,331
2013-11-19,55,38,21,34,27,19,93,60,35,30.16,29.87,29.69,10,10,10,22,13,31,0.00,0,,146
2013-11-20,53,40,26,32,28,21,86,59,38,30.10,29.83,29.69,10,10,7,24,12,29,0.00,1,,216
2013-11-21,26,20,14,21,12,7,93,72,63,30.62,30.40,30.10,10,10,5,30,22,38,0.00,5,Snow,334
2013-11-22,35,19,3,14,6,0,85,67,23,30.75,30.59,30.49,10,10,7,24,10,30,0.00,1,Snow,295
2013-11-23,15,8,0,3,0,-4,85,74,49,30.91,30.80,30.63,10,10,10,15,9,20,0.00,0,,309
2013-11-24,44,25,6,28,13,1,79,58,27,30.64,30.18,29.89,10,10,10,22,10,28,0.00,0,Rain,186
2013-11-25,39,32,24,30,24,18,93,67,49,30.17,30.02,29.88,10,10,10,26,14,36,0.00,6,Rain,297
2013-11-26,26,17,6,16,9,3,85,64,43,30.43,30.33,30.17,10,10,10,26,18,33,0.00,2,Snow,333
2013-11-27,26,14,3,12,6,0,92,73,47,30.43,30.17,29.97,10,10,10,18,5,26,0.00,0,,147
2013-11-28,26,16,5,16,9,0,92,67,47,30.47,30.33,30.06,10,10,10,25,11,31,0.00,3,Snow,333
2013-11-29,37,21,5,19,14,0,92,69,45,30.47,30.24,30.03,10,10,10,25,7,32,0.00,0,,149
2013-11-30,35,25,15,23,19,12,93,77,56,30.21,30.09,29.99,10,9,7,15,6,21,0.00,2,,322